Time;durP1;ratioP1;P1;durP2;ratioP2;P2;SDS_P1;SDS_P2;PMS_P1;PMS_P2;Temp;Humidity;BMP_temperature;BMP_pressure;BME280_temperature;BME280_humidity;BME280_pressure;Samples;Min_cycle;Max_cycle;Signal;HPM_P1;HPM_P2
2022/02/06 00:03:57;;;;;;;8.43;3.15;;;5.10;99.90;;;;;;12513970;28;20674;-92
2022/02/06 00:10:04;;;;;;;9.07;2.92;;;5.00;99.90;;;;;;12530977;28;20532;-89
2022/02/06 00:16:14;;;;;;;7.60;3.28;;;5.10;99.90;;;;;;12521216;28;20060;-91
2022/02/06 00:22:28;;;;;;;10.23;3.45;;;5.10;99.90;;;;;;12494989;28;20489;-90
2022/02/06 00:47:02;;;;;;;8.13;3.70;;;5.20;99.90;;;;;;12525565;28;20060;-89
2022/02/06 00:53:08;;;;;;;11.68;4.18;;;5.20;99.90;;;;;;12513711;28;20460;-91
2022/02/06 00:59:10;;;;;;;9.98;3.63;;;5.30;99.90;;;;;;12508760;28;20057;-92
2022/02/06 01:05:12;;;;;;;7.85;3.67;;;5.30;99.90;;;;;;12503594;28;20038;-89
2022/02/06 01:11:16;;;;;;;9.27;3.40;;;5.30;99.90;;;;;;12507101;28;20094;-90
2022/02/06 01:17:35;;;;;;;5.93;3.22;;;5.30;99.90;;;;;;12509413;28;20545;-88
2022/02/06 01:24:27;;;;;;;7.22;3.53;;;5.30;99.90;;;;;;12534006;28;20083;-90
2022/02/06 01:30:25;;;;;;;5.82;3.40;;;5.30;99.90;;;;;;12508948;28;20048;-92
2022/02/06 01:36:43;;;;;;;7.20;3.00;;;5.40;99.90;;;;;;12510260;28;20045;-90
2022/02/06 01:42:59;;;;;;;5.65;3.63;;;5.30;99.90;;;;;;12514359;28;20052;-91
2022/02/06 02:46:57;;;;;;;7.88;5.10;;;5.50;99.90;;;;;;12519940;28;20182;-90
2022/02/06 02:59:24;;;;;;;7.97;5.07;;;5.60;99.90;;;;;;12550626;28;20489;-91
2022/02/06 03:05:29;;;;;;;;;;;5.70;99.90;;;;;;12524352;28;20091;-92
2022/02/06 03:11:32;;;;;;;7.60;4.65;;;5.60;99.90;;;;;;12509468;28;20377;-91
2022/02/06 03:17:45;;;;;;;9.75;4.90;;;5.70;99.90;;;;;;12522195;28;20514;-90
2022/02/06 03:30:40;;;;;;;7.32;4.60;;;5.70;99.90;;;;;;12498696;28;20135;-92
2022/02/06 03:36:49;;;;;;;8.10;4.18;;;5.70;99.90;;;;;;12488434;28;20167;-90
2022/02/06 03:43:12;;;;;;;12.80;5.10;;;5.80;99.90;;;;;;12487401;28;20467;-92
2022/02/06 03:49:27;;;;;;;6.05;3.72;;;5.80;99.90;;;;;;12529116;28;20731;-91
2022/02/06 03:55:39;;;;;;;5.47;3.78;;;5.80;99.90;;;;;;12498350;28;20060;-91
2022/02/06 04:01:42;;;;;;;7.05;3.38;;;5.90;99.90;;;;;;12501480;28;20132;-92
2022/02/06 04:07:47;;;;;;;8.35;3.72;;;5.80;99.90;;;;;;12508590;28;20061;-90
2022/02/06 04:14:16;;;;;;;6.15;3.63;;;5.80;99.90;;;;;;12512740;28;20060;-90
2022/02/06 04:20:26;;;;;;;5.68;3.22;;;5.80;99.90;;;;;;12504882;28;20051;-90
2022/02/06 04:26:28;;;;;;;6.03;3.80;;;5.80;99.90;;;;;;12510441;28;20413;-92
2022/02/06 04:32:35;;;;;;;6.20;2.90;;;5.90;99.90;;;;;;12496755;28;20052;-91
2022/02/06 04:38:56;;;;;;;7.38;3.45;;;6.00;99.90;;;;;;12524186;28;20430;-90
2022/02/06 04:52:55;;;;;;;6.18;3.45;;;6.00;99.90;;;;;;12525190;28;20088;-91
2022/02/06 05:36:08;;;;;;;6.45;2.67;;;6.20;99.90;;;;;;12509772;28;20044;-91
2022/02/06 05:42:11;;;;;;;5.55;2.53;;;6.20;99.90;;;;;;12502915;28;20538;-90
2022/02/06 05:48:13;;;;;;;4.95;2.17;;;6.30;99.90;;;;;;12477127;28;20049;-91
2022/02/06 05:54:16;;;;;;;5.93;2.53;;;6.30;99.90;;;;;;12506120;28;20111;-90
2022/02/06 06:00:18;;;;;;;6.45;2.65;;;6.20;99.90;;;;;;12492406;28;20045;-89
2022/02/06 06:06:22;;;;;;;7.23;2.63;;;6.20;99.90;;;;;;12521024;28;20052;-90
2022/02/06 06:12:27;;;;;;;6.90;2.40;;;6.10;99.90;;;;;;12483435;28;20523;-92
2022/02/06 06:18:29;;;;;;;4.50;2.20;;;6.10;99.90;;;;;;12500822;28;20105;-90
2022/02/06 06:24:42;;;;;;;5.45;2.22;;;6.20;99.90;;;;;;12489749;28;20110;-91
2022/02/06 06:30:55;;;;;;;2.80;1.85;;;6.30;99.90;;;;;;12504919;28;20068;-91
2022/02/06 06:37:00;;;;;;;2.25;1.70;;;6.30;99.90;;;;;;12490629;28;20094;-91
2022/02/06 06:43:03;;;;;;;5.03;2.13;;;6.20;99.90;;;;;;12500813;28;20559;-91
2022/02/06 06:49:08;;;;;;;5.07;2.58;;;6.30;99.90;;;;;;12485152;28;20045;-90
2022/02/06 06:55:18;;;;;;;4.82;2.67;;;6.30;99.90;;;;;;12509712;28;20108;-90
2022/02/06 07:01:45;;;;;;;5.78;2.97;;;6.30;99.90;;;;;;12482212;28;20412;-90
2022/02/06 07:07:47;;;;;;;5.18;3.50;;;6.40;99.90;;;;;;12506177;28;20068;-90
2022/02/06 07:13:49;;;;;;;7.45;3.90;;;6.30;99.90;;;;;;12521946;28;20066;-91
2022/02/06 07:19:51;;;;;;;7.00;4.43;;;6.30;99.90;;;;;;12538281;28;20053;-92
2022/02/06 07:25:59;;;;;;;6.80;4.00;;;6.30;99.90;;;;;;12522954;28;20567;-92
2022/02/06 07:32:05;;;;;;;7.20;4.35;;;6.40;99.90;;;;;;12554991;28;20523;-92
2022/02/06 07:38:11;;;;;;;6.05;4.68;;;6.40;99.90;;;;;;12541846;28;20032;-93
2022/02/06 07:44:15;;;;;;;7.63;5.30;;;6.40;99.90;;;;;;12577053;28;20269;-92
2022/02/06 07:50:24;;;;;;;9.88;5.90;;;6.40;99.90;;;;;;12537562;28;20064;-90
2022/02/06 07:56:29;;;;;;;6.53;5.15;;;6.40;99.90;;;;;;12536000;28;20051;-90
2022/02/06 08:02:34;;;;;;;6.85;5.03;;;6.50;99.90;;;;;;12541205;28;20049;-92
2022/02/06 08:08:38;;;;;;;7.90;5.28;;;6.60;99.90;;;;;;12540056;28;20063;-92
2022/02/06 08:15:00;;;;;;;7.18;5.00;;;6.70;99.90;;;;;;12514804;28;20044;-90
2022/02/06 08:21:04;;;;;;;8.70;5.53;;;6.60;99.90;;;;;;12513921;28;20045;-91
2022/02/06 08:27:21;;;;;;;8.20;5.90;;;6.60;99.90;;;;;;12505848;28;20053;-92
2022/02/06 08:33:24;;;;;;;8.63;5.30;;;6.70;99.90;;;;;;12513753;28;20495;-93
2022/02/06 08:39:29;;;;;;;8.55;4.60;;;6.70;99.90;;;;;;12507572;28;20508;-91
2022/02/06 08:45:46;;;;;;;6.20;4.10;;;6.70;99.90;;;;;;12521810;28;20083;-90
2022/02/06 08:51:48;;;;;;;5.40;4.50;;;6.60;99.90;;;;;;12506885;28;20049;-90
2022/02/06 08:57:51;;;;;;;6.35;4.32;;;6.70;99.90;;;;;;12510697;28;20083;-90
2022/02/06 09:03:56;;;;;;;5.45;4.57;;;6.70;99.90;;;;;;12531984;28;20102;-91
2022/02/06 09:10:01;;;;;;;5.00;4.28;;;6.70;99.90;;;;;;12506213;28;20045;-92
2022/02/06 09:16:04;;;;;;;4.35;3.70;;;6.70;99.90;;;;;;12491766;28;20059;-92
2022/02/06 09:22:10;;;;;;;6.63;4.38;;;6.70;99.90;;;;;;12495755;28;20048;-93
2022/02/06 09:28:12;;;;;;;6.35;3.53;;;6.80;99.90;;;;;;12501850;28;20131;-90
2022/02/06 09:40:26;;;;;;;4.65;2.50;;;6.80;99.90;;;;;;12524849;28;20041;-93
2022/02/06 09:46:32;;;;;;;3.33;2.50;;;6.70;99.90;;;;;;12507491;28;20546;-92
2022/02/06 09:52:42;;;;;;;6.07;2.50;;;6.70;99.90;;;;;;12503219;28;20049;-91
2022/02/06 09:59:01;;;;;;;4.15;2.15;;;6.80;99.90;;;;;;12487176;28;20048;-91
2022/02/06 10:05:04;;;;;;;3.38;2.20;;;6.80;99.90;;;;;;12498717;28;20076;-91
2022/02/06 10:11:11;;;;;;;5.97;2.57;;;6.80;99.90;;;;;;12523091;28;20114;-90
2022/02/06 10:17:18;;;;;;;2.35;1.52;;;6.90;99.90;;;;;;12518769;28;20048;-91
2022/02/06 10:23:51;;;;;;;3.05;1.52;;;6.90;99.90;;;;;;12478246;28;20048;-92
2022/02/06 10:29:58;;;;;;;4.32;1.65;;;6.90;99.90;;;;;;12504868;28;20098;-91
2022/02/06 10:36:00;;;;;;;3.10;1.77;;;6.90;99.90;;;;;;12495721;28;20045;-91
2022/02/06 10:42:04;;;;;;;2.88;1.40;;;7.00;99.90;;;;;;12511333;28;20097;-91
2022/02/06 10:48:23;;;;;;;2.43;1.60;;;6.90;99.90;;;;;;12515192;28;20077;-89
2022/02/06 10:54:35;;;;;;;3.08;1.80;;;6.90;99.90;;;;;;12516009;28;20095;-90
2022/02/06 11:00:38;;;;;;;2.60;1.30;;;6.90;99.90;;;;;;12507964;28;20053;-92
2022/02/06 11:06:55;;;;;;;4.63;1.65;;;6.90;99.90;;;;;;12499734;28;20064;-89
2022/02/06 11:13:02;;;;;;;3.63;1.48;;;6.90;99.90;;;;;;12494407;28;20049;-91
2022/02/06 11:19:17;;;;;;;4.05;1.38;;;6.90;99.90;;;;;;12511138;28;20067;-90
2022/02/06 11:25:19;;;;;;;3.83;1.25;;;6.80;99.90;;;;;;12515711;28;20044;-89
2022/02/06 11:31:24;;;;;;;2.50;1.20;;;6.80;99.90;;;;;;12515739;28;20049;-90
2022/02/06 11:44:20;;;;;;;2.05;0.88;;;6.70;99.90;;;;;;12556286;28;20033;-92
2022/02/06 11:50:24;;;;;;;2.25;0.70;;;6.60;99.90;;;;;;12549272;28;20044;-91
2022/02/06 11:56:38;;;;;;;2.17;1.00;;;6.60;99.90;;;;;;12506905;28;20076;-92
2022/02/06 12:02:48;;;;;;;0.75;0.50;;;6.50;99.90;;;;;;12522267;28;20049;-90
2022/02/06 12:08:59;;;;;;;1.25;0.63;;;6.50;99.90;;;;;;12503352;28;20571;-89
2022/02/06 12:15:29;;;;;;;1.48;0.60;;;6.40;99.90;;;;;;12502175;28;20611;-91
2022/02/06 12:21:34;;;;;;;0.40;0.40;;;6.30;99.90;;;;;;12498901;28;20171;-90
2022/02/06 12:27:39;;;;;;;0.90;0.50;;;6.20;99.90;;;;;;12504951;28;20049;-92
2022/02/06 12:33:58;;;;;;;1.27;0.60;;;6.20;99.90;;;;;;12507294;28;20037;-89
2022/02/06 12:40:06;;;;;;;1.65;0.77;;;6.20;99.90;;;;;;12509013;28;20140;-88
2022/02/06 12:46:09;;;;;;;3.45;0.80;;;6.10;99.90;;;;;;12505889;28;20072;-91
2022/02/06 12:52:16;;;;;;;1.85;0.60;;;6.00;99.90;;;;;;12484759;28;20045;-89
2022/02/06 12:58:27;;;;;;;1.13;0.60;;;6.00;99.90;;;;;;12509119;28;20045;-89
2022/02/06 13:04:35;;;;;;;1.83;0.80;;;6.00;99.90;;;;;;12488834;28;20505;-90
2022/02/06 13:10:52;;;;;;;1.00;0.50;;;5.90;99.90;;;;;;12513985;28;20456;-89
2022/02/06 13:17:12;;;;;;;1.17;0.55;;;5.90;99.90;;;;;;12494139;28;20057;-89
2022/02/06 13:42:21;;;;;;;1.60;0.70;;;5.90;99.90;;;;;;12516492;28;20045;-90
2022/02/06 13:48:45;;;;;;;2.88;0.45;;;6.00;99.90;;;;;;12505484;28;20057;-88
2022/02/06 13:54:51;;;;;;;2.38;0.40;;;5.80;99.90;;;;;;12474921;28;20087;-88
2022/02/06 14:01:07;;;;;;;1.40;0.22;;;5.20;99.90;;;;;;12500493;28;20122;-90
2022/02/06 14:07:26;;;;;;;0.68;0.30;;;4.90;99.90;;;;;;12496551;28;20095;-91
2022/02/06 14:13:28;;;;;;;0.68;0.32;;;4.80;99.90;;;;;;12489160;28;20053;-89
2022/02/06 14:19:45;;;;;;;0.82;0.40;;;4.70;99.90;;;;;;12509290;28;20063;-90
2022/02/06 14:25:47;;;;;;;0.60;0.38;;;4.70;99.90;;;;;;12505894;28;20046;-90
2022/02/06 14:31:49;;;;;;;0.52;0.20;;;4.70;99.90;;;;;;12539731;28;20044;-90
2022/02/06 14:37:56;;;;;;;3.20;0.70;;;4.70;99.90;;;;;;12551958;28;20063;-92
2022/02/06 14:44:13;;;;;;;2.10;0.82;;;4.70;99.90;;;;;;12530133;28;20068;-91
2022/02/06 14:50:20;;;;;;;3.33;0.50;;;4.80;99.90;;;;;;12509003;28;20060;-90
2022/02/06 14:56:22;;;;;;;2.17;1.00;;;4.80;99.90;;;;;;12502504;28;20379;-90
2022/02/06 15:02:25;;;;;;;8.88;4.68;;;4.80;99.90;;;;;;12496542;28;20048;-90
2022/02/06 15:08:41;;;;;;;2.40;0.90;;;4.90;99.90;;;;;;12502074;28;20064;-88
2022/02/06 15:14:44;;;;;;;1.65;0.30;;;4.90;99.90;;;;;;12519639;28;20045;-89
2022/02/06 15:20:52;;;;;;;1.88;0.60;;;4.90;99.90;;;;;;12531009;28;20056;-89
2022/02/06 15:26:54;;;;;;;1.00;0.40;;;4.90;99.90;;;;;;12507716;28;20061;-90
2022/02/06 15:32:56;;;;;;;1.58;0.73;;;5.00;99.90;;;;;;12522776;28;20137;-91
2022/02/06 15:38:58;;;;;;;1.65;0.57;;;5.10;99.90;;;;;;12562642;28;20052;-90
2022/02/06 15:45:00;;;;;;;0.98;0.60;;;5.10;99.90;;;;;;12561808;28;20049;-89
2022/02/06 15:51:06;;;;;;;2.58;0.70;;;5.10;99.90;;;;;;12520476;28;20102;-89
2022/02/06 15:57:10;;;;;;;2.65;0.70;;;5.10;99.90;;;;;;12523089;28;20490;-91
2022/02/06 16:03:14;;;;;;;5.13;1.40;;;5.20;99.90;;;;;;12555639;28;20131;-91
2022/02/06 16:09:16;;;;;;;2.28;1.15;;;5.10;99.90;;;;;;12519581;28;20060;-90
2022/02/06 16:15:18;;;;;;;3.80;1.00;;;5.10;99.90;;;;;;12539979;28;20037;-89
2022/02/06 16:21:28;;;;;;;5.15;1.25;;;5.00;99.90;;;;;;12529362;28;20051;-92
2022/02/06 16:27:30;;;;;;;2.60;1.00;;;5.00;99.90;;;;;;12529294;28;20110;-91
2022/02/06 16:33:32;;;;;;;1.40;0.63;;;4.90;99.90;;;;;;12520565;28;20052;-91
2022/02/06 16:39:40;;;;;;;1.25;0.30;;;4.90;99.90;;;;;;12530143;28;20193;-89
2022/02/06 16:45:41;;;;;;;1.92;0.30;;;4.70;99.90;;;;;;12499890;28;20061;-89
2022/02/06 16:51:48;;;;;;;1.42;0.35;;;4.50;99.90;;;;;;12517630;28;20103;-91
2022/02/06 16:57:51;;;;;;;3.08;1.23;;;4.60;99.90;;;;;;12511687;28;20140;-90
2022/02/06 17:03:53;;;;;;;2.15;0.93;;;4.70;99.90;;;;;;12510839;28;20117;-90
2022/02/06 17:09:54;;;;;;;2.83;1.20;;;4.70;99.90;;;;;;12508265;28;20060;-91
2022/02/06 17:15:58;;;;;;;2.40;1.17;;;4.80;99.90;;;;;;12509085;28;20526;-89
2022/02/06 17:22:02;;;;;;;5.07;1.25;;;4.90;99.90;;;;;;12461763;28;20159;-91
2022/02/06 17:28:04;;;;;;;5.68;1.60;;;4.90;99.90;;;;;;12478589;28;20110;-91
2022/02/06 17:34:07;;;;;;;5.20;1.98;;;4.90;99.90;;;;;;12480510;28;20045;-89
2022/02/06 17:40:12;;;;;;;3.50;1.63;;;4.70;99.90;;;;;;12452513;28;20041;-90
2022/02/06 17:46:15;;;;;;;7.45;1.80;;;4.80;99.90;;;;;;12476841;28;20073;-91
2022/02/06 17:52:17;;;;;;;4.70;2.00;;;4.90;99.90;;;;;;12473773;28;20515;-89
2022/02/06 17:58:19;;;;;;;4.78;2.22;;;5.10;99.90;;;;;;12464555;28;20056;-91
2022/02/06 18:04:21;;;;;;;5.47;2.65;;;5.20;99.90;;;;;;12458112;28;20041;-89
2022/02/06 18:10:24;;;;;;;13.43;2.97;;;5.20;99.90;;;;;;12458165;28;20080;-91
2022/02/06 18:16:28;;;;;;;9.75;2.42;;;5.30;99.90;;;;;;12466258;28;20056;-90
2022/02/06 18:22:33;;;;;;;7.57;2.10;;;5.40;99.90;;;;;;12463998;28;20042;-92
2022/02/06 18:28:38;;;;;;;4.35;1.50;;;5.40;99.90;;;;;;12475833;28;20052;-91
2022/02/06 18:34:41;;;;;;;5.45;1.00;;;5.50;99.90;;;;;;12475903;28;20077;-90
2022/02/06 18:40:44;;;;;;;3.47;0.75;;;5.60;99.90;;;;;;12459291;28;20053;-91
2022/02/06 18:46:47;;;;;;;2.40;0.50;;;5.40;99.90;;;;;;12471501;28;20656;-91
2022/02/06 18:52:50;;;;;;;2.20;0.80;;;5.20;99.90;;;;;;12476816;28;20616;-89
2022/02/06 18:58:52;;;;;;;4.15;0.70;;;5.10;99.90;;;;;;12471730;28;20076;-89
2022/02/06 19:04:54;;;;;;;4.70;0.70;;;5.00;99.90;;;;;;12461216;28;20041;-91
2022/02/06 19:11:03;;;;;;;5.53;0.90;;;5.00;99.90;;;;;;12479441;28;20720;-90
2022/02/06 19:17:08;;;;;;;7.35;0.85;;;4.80;99.90;;;;;;12465953;28;20625;-90
2022/02/06 19:23:11;;;;;;;4.53;0.57;;;4.90;99.90;;;;;;12398651;28;20473;-91
2022/02/06 19:29:14;;;;;;;0.65;0.25;;;4.50;99.90;;;;;;12390396;28;20123;-89
2022/02/06 19:35:22;;;;;;;2.00;0.40;;;2.90;99.90;;;;;;12409965;28;20112;-91
2022/02/06 19:41:25;;;;;;;1.35;0.40;;;2.70;99.90;;;;;;12395472;28;20116;-91
2022/02/06 19:47:28;;;;;;;1.57;0.60;;;2.60;99.90;;;;;;12400858;28;20050;-90
2022/02/06 19:53:34;;;;;;;1.27;0.70;;;2.70;99.90;;;;;;12412966;28;20073;-89
2022/02/06 19:59:37;;;;;;;0.85;0.40;;;2.80;99.90;;;;;;12395832;28;20100;-90
2022/02/06 20:05:41;;;;;;;4.38;1.10;;;3.00;99.90;;;;;;12412342;28;20069;-91
2022/02/06 20:11:44;;;;;;;2.78;0.80;;;3.00;99.90;;;;;;12405797;28;20051;-90
2022/02/06 20:17:46;;;;;;;5.15;1.10;;;3.00;99.90;;;;;;12419946;28;20136;-90
2022/02/06 20:23:57;;;;;;;1.60;0.88;;;3.10;99.90;;;;;;12506184;28;20134;-89
2022/02/06 20:30:01;;;;;;;3.72;1.13;;;3.20;99.90;;;;;;12508707;28;20607;-92
2022/02/06 20:36:03;;;;;;;3.80;1.10;;;3.30;99.90;;;;;;12528289;28;20775;-91
2022/02/06 20:42:09;;;;;;;3.60;1.42;;;3.30;99.90;;;;;;12534137;28;20056;-90
2022/02/06 20:48:14;;;;;;;3.13;0.90;;;3.30;99.90;;;;;;12549721;28;20064;-89
2022/02/06 20:54:17;;;;;;;6.38;1.08;;;3.50;99.90;;;;;;12550092;28;20048;-90
2022/02/06 21:00:19;;;;;;;4.82;0.80;;;3.50;99.90;;;;;;12516007;28;20136;-91
2022/02/06 21:06:21;;;;;;;2.75;0.85;;;3.60;99.90;;;;;;12519479;28;20497;-90
2022/02/06 21:12:30;;;;;;;3.30;1.17;;;3.60;99.90;;;;;;12527824;28;20118;-90
2022/02/06 21:18:37;;;;;;;6.47;1.15;;;3.70;99.90;;;;;;12511190;28;20062;-91
2022/02/06 21:24:46;;;;;;;8.07;1.17;;;3.70;99.90;;;;;;12504326;28;20045;-90
2022/02/06 21:30:48;;;;;;;5.18;1.10;;;3.80;99.90;;;;;;12495995;28;20049;-90
2022/02/06 21:36:52;;;;;;;3.00;0.70;;;3.80;99.90;;;;;;12506474;28;20482;-91
2022/02/06 21:42:54;;;;;;;5.50;1.10;;;3.80;99.90;;;;;;12506944;28;20580;-87
2022/02/06 21:48:56;;;;;;;9.30;0.80;;;3.80;99.90;;;;;;12513446;28;20048;-89
2022/02/06 21:54:59;;;;;;;8.18;1.40;;;3.90;99.90;;;;;;12528740;28;20041;-90
2022/02/06 22:01:05;;;;;;;9.90;1.48;;;3.90;99.90;;;;;;12511447;28;20076;-90
2022/02/06 22:07:17;;;;;;;6.82;1.10;;;3.90;99.90;;;;;;12522998;28;20137;-90
2022/02/06 22:32:24;;;;;;;10.75;1.45;;;3.90;99.90;;;;;;12523086;28;20089;-88
2022/02/06 22:38:26;;;;;;;13.98;1.45;;;3.90;99.90;;;;;;12513455;28;20667;-88
2022/02/06 22:44:28;;;;;;;10.18;1.27;;;3.90;99.90;;;;;;12521113;28;20128;-90
2022/02/06 22:50:30;;;;;;;10.00;1.30;;;3.80;99.90;;;;;;12507910;28;20512;-89
2022/02/06 22:56:33;;;;;;;15.38;1.50;;;3.90;99.90;;;;;;12523363;28;20061;-90
2022/02/06 23:02:35;;;;;;;8.38;1.73;;;3.90;99.90;;;;;;12522364;28;20045;-90
2022/02/06 23:08:39;;;;;;;12.70;1.92;;;3.90;99.90;;;;;;12521894;28;20051;-90
2022/02/06 23:14:41;;;;;;;8.40;1.53;;;3.80;99.90;;;;;;12515526;28;20056;-89
2022/02/06 23:20:43;;;;;;;9.90;1.30;;;3.70;99.90;;;;;;12517711;28;20068;-88
2022/02/06 23:26:46;;;;;;;11.10;1.70;;;3.70;99.90;;;;;;12519206;28;20051;-90
2022/02/06 23:32:49;;;;;;;9.57;1.73;;;3.60;99.90;;;;;;12525009;28;20056;-90
2022/02/06 23:38:51;;;;;;;11.85;1.70;;;3.50;99.90;;;;;;12525199;28;20076;-89
2022/02/06 23:44:53;;;;;;;17.45;1.50;;;3.60;99.90;;;;;;12521524;28;20069;-91
2022/02/06 23:51:02;;;;;;;7.25;1.60;;;3.50;99.90;;;;;;12520755;28;20152;-91
